createdAt,value
2023-02-26T00:00:21.356Z,101929.41
2023-02-26T00:02:49.276Z,101931.44
2023-02-26T00:05:17.471Z,101938.09
2023-02-26T00:07:45.005Z,101935.66
2023-02-26T00:10:14.017Z,101945.25
2023-02-26T00:12:41.693Z,101939.56
2023-02-26T00:15:13.110Z,101937.97
2023-02-26T00:17:46.462Z,101936.31
2023-02-26T00:20:14.278Z,101947.84
2023-02-26T00:22:41.919Z,101956.34
2023-02-26T00:25:09.688Z,101963.19
2023-02-26T00:27:37.612Z,101960.28
2023-02-26T00:30:08.954Z,101966.38
2023-02-26T00:32:36.641Z,101969.75
2023-02-26T00:35:04.206Z,101971.34
2023-02-26T00:37:46.959Z,101981.50
2023-02-26T00:40:32.951Z,101983.38
2023-02-26T00:43:00.560Z,101995.44
2023-02-26T00:45:28.596Z,102001.50
2023-02-26T00:48:11.451Z,101998.53
2023-02-26T00:50:45.468Z,102002.78
2023-02-26T00:53:12.960Z,102001.88
2023-02-26T00:55:40.420Z,102011.31
2023-02-26T00:58:07.904Z,102011.56
2023-02-26T01:00:35.305Z,102014.50
2023-02-26T01:03:03.666Z,102012.63
2023-02-26T01:05:31.425Z,102015.69
2023-02-26T01:07:58.828Z,102010.56
2023-02-26T01:10:26.423Z,102011.91
2023-02-26T01:12:54.196Z,102015.06
2023-02-26T01:15:21.793Z,102016.38
2023-02-26T01:17:53.058Z,102021.75
2023-02-26T01:20:21.968Z,102019.22
2023-02-26T01:22:53.460Z,102021.59
2023-02-26T01:25:38.126Z,102028.66
2023-02-26T01:28:05.675Z,102024.34
2023-02-26T01:30:33.234Z,102029.66
2023-02-26T01:33:09.611Z,102034.78
2023-02-26T01:35:39.803Z,102039.19
2023-02-26T01:38:13.013Z,102047.88
2023-02-26T01:40:49.259Z,102052.00
2023-02-26T01:43:20.840Z,102053.91
2023-02-26T01:45:58.634Z,102054.34
2023-02-26T01:48:34.805Z,102051.84
2023-02-26T01:51:02.367Z,102053.16
2023-02-26T01:53:29.900Z,102059.91
2023-02-26T01:55:59.920Z,102058.66
2023-02-26T01:58:28.722Z,102063.78
2023-02-26T02:00:56.198Z,102071.31
2023-02-26T02:03:25.501Z,102075.94
2023-02-26T02:06:05.146Z,102072.47
2023-02-26T02:08:35.678Z,102073.78
2023-02-26T02:11:04.555Z,102074.75
2023-02-26T02:13:37.759Z,102061.78
2023-02-26T02:16:24.156Z,102071.16
2023-02-26T02:19:03.140Z,102086.09
2023-02-26T02:21:48.781Z,102090.47
2023-02-26T02:24:16.255Z,102088.72
2023-02-26T02:26:51.433Z,102084.97
2023-02-26T02:29:27.887Z,102088.28
2023-02-26T02:32:07.679Z,102090.41
2023-02-26T02:34:46.577Z,102090.66
2023-02-26T02:37:29.365Z,102081.69
2023-02-26T02:40:00.352Z,102093.06
2023-02-26T02:42:33.044Z,102096.63
2023-02-26T02:45:09.354Z,102099.41
2023-02-26T02:47:38.341Z,102100.28
2023-02-26T02:50:13.139Z,102104.38
2023-02-26T02:52:49.563Z,102102.69
2023-02-26T02:55:23.083Z,102113.25
2023-02-26T02:57:53.790Z,102120.16
2023-02-26T03:00:22.965Z,102125.13
2023-02-26T03:02:54.959Z,102117.44
2023-02-26T03:05:22.423Z,102129.53
2023-02-26T03:08:11.226Z,102129.72
2023-02-26T03:10:38.764Z,102133.78
2023-02-26T03:13:06.679Z,102132.75
2023-02-26T03:15:34.052Z,102135.59
2023-02-26T03:18:13.466Z,102133.94
2023-02-26T03:20:53.677Z,102140.66
2023-02-26T03:23:23.599Z,102143.06
2023-02-26T03:26:11.661Z,102139.31
2023-02-26T03:28:46.147Z,102141.72
2023-02-26T03:31:13.594Z,102140.91
2023-02-26T03:34:01.373Z,102144.81
2023-02-26T03:36:37.330Z,102144.94
2023-02-26T03:39:17.782Z,102154.03
2023-02-26T03:41:50.088Z,102155.66
2023-02-26T03:44:24.332Z,102160.06
2023-02-26T03:46:54.922Z,102162.03
2023-02-26T03:49:27.811Z,102161.44
2023-02-26T03:51:55.935Z,102163.97
2023-02-26T03:54:32.383Z,102162.97
2023-02-26T03:57:00.107Z,102163.03
2023-02-26T03:59:27.845Z,102166.06
2023-02-26T04:01:55.240Z,102178.25
2023-02-26T04:04:42.449Z,102171.03
2023-02-26T04:07:11.640Z,102180.91
2023-02-26T04:09:39.343Z,102186.22
2023-02-26T04:12:06.814Z,102194.41
2023-02-26T04:14:34.394Z,102191.34
2023-02-26T04:17:01.834Z,102197.31
2023-02-26T04:19:29.309Z,102199.53
2023-02-26T04:21:56.691Z,102191.34
2023-02-26T04:24:24.107Z,102209.38
2023-02-26T04:26:51.496Z,102208.13
2023-02-26T04:29:18.937Z,102212.19
2023-02-26T04:31:46.520Z,102218.03
2023-02-26T04:34:14.408Z,102214.50
2023-02-26T04:36:41.780Z,102216.34
2023-02-26T04:39:10.655Z,102222.19
2023-02-26T04:41:38.814Z,102222.38
2023-02-26T04:44:06.437Z,102224.94
2023-02-26T04:46:34.214Z,102224.06
2023-02-26T04:49:01.654Z,102224.38
2023-02-26T04:51:29.050Z,102231.88
2023-02-26T04:53:56.423Z,102230.38
2023-02-26T04:56:24.218Z,102230.22
2023-02-26T04:58:51.856Z,102234.09
2023-02-26T05:01:19.452Z,102232.78
2023-02-26T05:03:46.946Z,102242.25
2023-02-26T05:06:14.368Z,102247.53
2023-02-26T05:08:43.120Z,102246.91
2023-02-26T05:11:11.572Z,102250.88
2023-02-26T05:13:39.533Z,102255.81
2023-02-26T05:16:07.526Z,102259.19
2023-02-26T05:18:35.068Z,102259.00
2023-02-26T05:21:02.856Z,102267.94
2023-02-26T05:23:30.336Z,102270.56
2023-02-26T05:25:58.300Z,102278.13
2023-02-26T05:28:26.508Z,102271.56
2023-02-26T05:30:54.350Z,102290.13
2023-02-26T05:33:21.858Z,102283.22
2023-02-26T05:35:49.323Z,102294.00
2023-02-26T05:38:17.120Z,102296.72
2023-02-26T05:40:44.594Z,102297.78
2023-02-26T05:43:12.098Z,102306.16
2023-02-26T05:45:41.391Z,102305.81
2023-02-26T05:48:11.206Z,102305.09
2023-02-26T05:50:38.667Z,102304.91
2023-02-26T05:53:06.160Z,102313.72
2023-02-26T05:55:33.582Z,102321.28
2023-02-26T05:58:01.088Z,102317.50
2023-02-26T06:00:28.705Z,102331.53
2023-02-26T06:02:56.608Z,102331.16
2023-02-26T06:05:24.060Z,102340.19
2023-02-26T06:07:51.470Z,102336.44
2023-02-26T06:10:19.304Z,102338.75
2023-02-26T06:12:46.765Z,102343.56
2023-02-26T06:15:14.262Z,102339.59
2023-02-26T06:17:41.972Z,102344.44
2023-02-26T06:20:10.165Z,102341.25
2023-02-26T06:22:37.782Z,102352.38
2023-02-26T06:25:05.371Z,102355.75
2023-02-26T06:27:32.762Z,102350.63
2023-02-26T06:30:00.148Z,102354.94
2023-02-26T06:32:30.266Z,102365.19
2023-02-26T06:34:58.117Z,102363.63
2023-02-26T06:37:25.555Z,102372.28
2023-02-26T06:39:52.968Z,102372.81
2023-02-26T06:42:20.460Z,102380.56
2023-02-26T06:44:47.925Z,102384.53
2023-02-26T06:47:15.484Z,102382.47
2023-02-26T06:49:42.894Z,102398.00
2023-02-26T06:52:10.347Z,102389.03
2023-02-26T06:54:37.772Z,102396.34
2023-02-26T06:57:05.194Z,102393.28
2023-02-26T06:59:32.620Z,102405.50
2023-02-26T07:02:00.140Z,102405.66
2023-02-26T07:04:27.614Z,102407.50
2023-02-26T07:06:55.115Z,102408.50
2023-02-26T07:09:22.570Z,102417.34
2023-02-26T07:11:50.034Z,102420.72
2023-02-26T07:14:17.548Z,102423.72
2023-02-26T07:16:45.033Z,102422.41
2023-02-26T07:19:12.499Z,102428.06
2023-02-26T07:21:39.959Z,102431.75
2023-02-26T07:24:07.660Z,102432.72
2023-02-26T07:26:35.135Z,102435.16
2023-02-26T07:29:02.665Z,102445.81
2023-02-26T07:31:30.137Z,102442.31
2023-02-26T07:33:57.599Z,102441.69
2023-02-26T07:36:25.180Z,102455.03
2023-02-26T07:38:52.743Z,102454.28
2023-02-26T07:41:20.210Z,102459.28
2023-02-26T07:43:47.901Z,102459.84
2023-02-26T07:46:15.337Z,102461.22
2023-02-26T07:48:42.876Z,102461.25
2023-02-26T07:51:11.185Z,102461.31
2023-02-26T07:53:38.643Z,102477.16
2023-02-26T07:56:06.044Z,102470.25
2023-02-26T07:58:33.427Z,102470.25
2023-02-26T08:01:00.827Z,102464.53
2023-02-26T08:03:28.188Z,102475.59
2023-02-26T08:05:55.668Z,102476.22
2023-02-26T08:08:23.036Z,102484.91
2023-02-26T08:10:50.571Z,102491.69
2023-02-26T08:13:18.193Z,102503.09
2023-02-26T08:15:45.616Z,102497.16
2023-02-26T08:18:13.142Z,102502.13
2023-02-26T08:20:40.595Z,102508.22
2023-02-26T08:23:08.195Z,102504.13
2023-02-26T08:25:35.616Z,102512.06
2023-02-26T08:28:03.337Z,102508.72
2023-02-26T08:30:30.922Z,102522.13
2023-02-26T08:32:58.389Z,102539.41
2023-02-26T08:35:26.012Z,102533.44
2023-02-26T08:37:54.538Z,102528.00
2023-02-26T08:40:22.001Z,102540.44
2023-02-26T08:42:49.452Z,102494.81
2023-02-26T08:45:16.915Z,102531.22
2023-02-26T08:47:56.116Z,102541.81
2023-02-26T08:50:24.654Z,102547.94
2023-02-26T08:52:52.217Z,102554.19
2023-02-26T08:55:19.634Z,102542.72
2023-02-26T08:57:47.049Z,102565.59
2023-02-26T09:00:16.541Z,102560.53
2023-02-26T09:02:43.997Z,102559.69
2023-02-26T09:05:12.261Z,102567.22
2023-02-26T09:07:40.030Z,102564.22
2023-02-26T09:10:07.935Z,102563.03
2023-02-26T09:12:36.900Z,102560.53
2023-02-26T09:15:05.689Z,102568.50
2023-02-26T09:17:33.180Z,102571.72
2023-02-26T09:20:00.663Z,102582.72
2023-02-26T09:22:28.162Z,102577.47
2023-02-26T09:24:55.768Z,102589.88
2023-02-26T09:27:23.193Z,102586.63
2023-02-26T09:29:50.594Z,102587.06
2023-02-26T09:32:18.096Z,102586.03
2023-02-26T09:34:45.711Z,102577.41
2023-02-26T09:37:13.101Z,102584.38
2023-02-26T09:39:40.506Z,102593.28
2023-02-26T09:42:26.803Z,102592.91
2023-02-26T09:45:00.015Z,102581.72
2023-02-26T09:47:41.903Z,102587.28
2023-02-26T09:50:35.044Z,102583.56
2023-02-26T09:53:09.673Z,102594.56
2023-02-26T09:55:43.668Z,102594.38
2023-02-26T09:58:30.043Z,102602.16
2023-02-26T10:01:12.506Z,102599.31
2023-02-26T10:03:51.963Z,102605.38
2023-02-26T10:06:38.003Z,102621.91
2023-02-26T10:09:20.055Z,102616.41
2023-02-26T10:12:19.726Z,102615.88
2023-02-26T10:14:55.603Z,102618.38
2023-02-26T10:17:25.714Z,102631.19
2023-02-26T10:19:57.438Z,102638.34
2023-02-26T10:22:24.947Z,102621.22
2023-02-26T10:24:55.684Z,102625.81
2023-02-26T10:27:46.113Z,102631.06
2023-02-26T10:30:32.203Z,102640.03
2023-02-26T10:33:05.488Z,102643.09
2023-02-26T10:35:37.886Z,102652.63
2023-02-26T10:38:07.560Z,102651.41
2023-02-26T10:40:41.000Z,102665.75
2023-02-26T10:43:20.863Z,102645.47
2023-02-26T10:46:08.039Z,102655.78
2023-02-26T10:48:44.726Z,102643.97
2023-02-26T10:51:20.267Z,102652.28
2023-02-26T10:53:50.360Z,102640.91
2023-02-26T10:56:17.757Z,102654.19
2023-02-26T10:58:45.179Z,102647.88
2023-02-26T11:01:20.592Z,102654.94
2023-02-26T11:03:49.583Z,102650.56
2023-02-26T11:06:22.968Z,102641.16
2023-02-26T11:08:53.127Z,102663.25
2023-02-26T11:11:56.150Z,102662.41
2023-02-26T11:14:26.834Z,102652.00
2023-02-26T11:16:57.403Z,102669.97
2023-02-26T11:19:28.380Z,102663.78
2023-02-26T11:21:57.629Z,102661.09
2023-02-26T11:24:48.146Z,102658.69
2023-02-26T11:27:17.752Z,102669.22
2023-02-26T11:29:48.690Z,102667.19
2023-02-26T11:32:20.494Z,102662.00
2023-02-26T11:34:49.568Z,102656.75
2023-02-26T11:37:36.987Z,102659.56
2023-02-26T11:40:14.078Z,102643.28
2023-02-26T11:42:45.009Z,102651.72
2023-02-26T11:45:15.400Z,102644.81
2023-02-26T11:47:42.945Z,102652.94
2023-02-26T11:50:28.585Z,102639.47
2023-02-26T11:52:57.759Z,102655.06
2023-02-26T11:55:33.832Z,102651.44
2023-02-26T11:58:01.351Z,102668.81
2023-02-26T12:00:33.390Z,102664.94
2023-02-26T12:03:05.232Z,102654.25
2023-02-26T12:05:32.942Z,102658.94
2023-02-26T12:08:00.515Z,102649.75
2023-02-26T12:10:38.957Z,102652.72
2023-02-26T12:13:17.479Z,102646.94
2023-02-26T12:15:53.499Z,102654.00
2023-02-26T12:18:23.983Z,102645.50
2023-02-26T12:20:51.417Z,102658.63
2023-02-26T12:23:37.842Z,102658.19
2023-02-26T12:26:08.214Z,102650.00
2023-02-26T12:28:54.355Z,102649.53
2023-02-26T12:31:21.799Z,102655.41
2023-02-26T12:34:07.229Z,102652.50
2023-02-26T12:36:49.576Z,102648.91
2023-02-26T12:39:32.439Z,102645.28
2023-02-26T12:41:59.897Z,102632.44
2023-02-26T12:44:40.602Z,102640.16
2023-02-26T12:47:07.991Z,102637.91
2023-02-26T12:49:38.611Z,102641.28
2023-02-26T12:52:12.506Z,102646.56
2023-02-26T12:54:59.239Z,102652.69
2023-02-26T12:57:41.863Z,102649.28
2023-02-26T13:00:12.733Z,102654.78
2023-02-26T13:02:52.371Z,102650.72
2023-02-26T13:05:36.880Z,102652.88
2023-02-26T13:08:13.528Z,102648.06
2023-02-26T13:10:56.047Z,102649.00
2023-02-26T13:13:32.364Z,102645.31
2023-02-26T13:15:59.867Z,102636.81
2023-02-26T13:18:44.731Z,102641.38
2023-02-26T13:21:21.658Z,102648.44
2023-02-26T13:24:02.634Z,102634.31
2023-02-26T13:26:30.711Z,102635.47
2023-02-26T13:29:13.062Z,102638.44
2023-02-26T13:31:44.704Z,102638.97
2023-02-26T13:34:16.038Z,102636.00
2023-02-26T13:36:43.824Z,102637.00
2023-02-26T13:39:22.707Z,102632.44
2023-02-26T13:42:02.396Z,102642.56
2023-02-26T13:44:29.796Z,102644.38
2023-02-26T13:47:17.070Z,102638.41
2023-02-26T13:49:45.904Z,102630.16
2023-02-26T13:52:24.047Z,102637.63
2023-02-26T13:54:51.733Z,102636.50
2023-02-26T13:57:26.880Z,102633.09
2023-02-26T13:59:55.895Z,102638.28
2023-02-26T14:02:36.788Z,102633.72
2023-02-26T14:05:08.748Z,102632.47
2023-02-26T14:07:48.295Z,102629.28
2023-02-26T14:10:16.936Z,102636.63
2023-02-26T14:12:44.908Z,102630.59
2023-02-26T14:15:29.518Z,102631.28
2023-02-26T14:18:05.668Z,102637.31
2023-02-26T14:20:35.406Z,102624.78
2023-02-26T14:23:09.992Z,102642.84
2023-02-26T14:25:37.440Z,102638.06
2023-02-26T14:28:20.035Z,102643.28
2023-02-26T14:30:52.414Z,102652.47
2023-02-26T14:33:20.672Z,102630.91
2023-02-26T14:35:50.406Z,102646.16
2023-02-26T14:38:32.659Z,102637.38
2023-02-26T14:41:10.010Z,102633.47
2023-02-26T14:43:41.270Z,102637.66
2023-02-26T14:46:09.707Z,102636.72
2023-02-26T14:48:40.017Z,102632.44
2023-02-26T14:51:26.564Z,102642.00
2023-02-26T14:54:17.459Z,102635.56
2023-02-26T14:57:03.990Z,102648.84
2023-02-26T14:59:34.951Z,102645.19
2023-02-26T15:02:11.388Z,102641.19
2023-02-26T15:04:51.201Z,102645.66
2023-02-26T15:07:24.566Z,102653.50
2023-02-26T15:10:10.746Z,102650.22
2023-02-26T15:12:53.240Z,102652.72
2023-02-26T15:15:28.806Z,102646.47
2023-02-26T15:18:14.927Z,102642.50
2023-02-26T15:20:51.401Z,102646.38
2023-02-26T15:23:29.774Z,102643.13
2023-02-26T15:25:58.206Z,102646.13
2023-02-26T15:28:28.802Z,102646.81
2023-02-26T15:30:57.168Z,102653.16
2023-02-26T15:33:25.325Z,102643.34
2023-02-26T15:35:53.606Z,102643.06
2023-02-26T15:38:21.261Z,102647.31
2023-02-26T15:40:50.356Z,102648.22
2023-02-26T15:43:21.434Z,102653.78
2023-02-26T15:45:50.108Z,102656.00
2023-02-26T15:48:44.562Z,102648.00
2023-02-26T15:51:14.441Z,102658.59
2023-02-26T15:53:42.661Z,102659.72
2023-02-26T15:56:12.726Z,102651.66
2023-02-26T15:58:45.260Z,102660.09
2023-02-26T16:01:17.146Z,102658.66
2023-02-26T16:03:44.744Z,102652.25
2023-02-26T16:06:13.883Z,102658.28
2023-02-26T16:08:41.487Z,102664.75
2023-02-26T16:11:09.333Z,102649.06
2023-02-26T16:13:38.833Z,102663.53
2023-02-26T16:16:13.099Z,102661.78
2023-02-26T16:18:41.873Z,102663.81
2023-02-26T16:21:10.944Z,102666.94
2023-02-26T16:23:45.179Z,102672.88
2023-02-26T16:26:22.064Z,102675.59
2023-02-26T16:28:58.860Z,102672.97
2023-02-26T16:31:27.476Z,102687.72
2023-02-26T16:34:02.818Z,102680.00
2023-02-26T16:36:41.559Z,102685.13
2023-02-26T16:39:09.027Z,102693.47
2023-02-26T16:41:38.217Z,102700.09
2023-02-26T16:44:25.999Z,102695.81
2023-02-26T16:46:53.703Z,102690.22
2023-02-26T16:49:24.894Z,102690.38
2023-02-26T16:51:53.039Z,102699.63
2023-02-26T16:54:20.480Z,102711.19
2023-02-26T16:56:49.040Z,102699.63
2023-02-26T16:59:17.201Z,102705.66
2023-02-26T17:01:52.946Z,102708.84
2023-02-26T17:04:22.282Z,102719.59
2023-02-26T17:06:50.176Z,102709.78
2023-02-26T17:09:37.084Z,102720.66
2023-02-26T17:12:12.732Z,102721.88
2023-02-26T17:14:44.465Z,102735.19
2023-02-26T17:17:11.877Z,102731.47
2023-02-26T17:19:39.499Z,102739.78
2023-02-26T17:22:10.778Z,102744.78
2023-02-26T17:24:40.865Z,102742.56
2023-02-26T17:27:09.443Z,102745.81
2023-02-26T17:29:41.423Z,102750.09
2023-02-26T17:32:20.091Z,102757.03
2023-02-26T17:34:53.979Z,102764.97
2023-02-26T17:37:21.644Z,102769.97
2023-02-26T17:39:50.021Z,102768.03
2023-02-26T17:42:21.272Z,102774.38
2023-02-26T17:44:48.768Z,102775.81
2023-02-26T17:47:17.860Z,102769.03
2023-02-26T17:49:45.460Z,102780.47
2023-02-26T17:52:12.869Z,102775.81
2023-02-26T17:54:40.337Z,102783.38
2023-02-26T17:57:08.486Z,102791.75
2023-02-26T17:59:35.936Z,102785.81
2023-02-26T18:02:03.326Z,102792.59
2023-02-26T18:04:30.859Z,102787.72
2023-02-26T18:06:58.449Z,102788.66
2023-02-26T18:09:25.907Z,102796.50
2023-02-26T18:11:53.292Z,102799.03
2023-02-26T18:14:20.681Z,102798.22
2023-02-26T18:16:48.188Z,102796.28
2023-02-26T18:19:16.288Z,102801.03
2023-02-26T18:21:43.937Z,102805.88
2023-02-26T18:24:11.397Z,102806.19
2023-02-26T18:26:38.951Z,102808.56
2023-02-26T18:29:06.372Z,102814.28
2023-02-26T18:31:35.267Z,102813.63
2023-02-26T18:34:03.511Z,102821.72
2023-02-26T18:36:37.452Z,102814.16
2023-02-26T18:39:06.245Z,102817.84
2023-02-26T18:41:34.086Z,102822.41
2023-02-26T18:44:02.177Z,102816.84
2023-02-26T18:46:29.941Z,102819.94
2023-02-26T18:48:57.425Z,102818.69
2023-02-26T18:51:25.385Z,102818.91
2023-02-26T18:53:52.996Z,102820.84
2023-02-26T18:56:20.496Z,102822.31
2023-02-26T18:58:47.941Z,102819.94
2023-02-26T19:01:15.347Z,102826.47
2023-02-26T19:03:42.723Z,102824.91
2023-02-26T19:06:10.193Z,102825.00
2023-02-26T19:08:37.648Z,102827.47
2023-02-26T19:11:05.144Z,102825.63
2023-02-26T19:13:32.724Z,102831.31
2023-02-26T19:16:00.199Z,102834.84
2023-02-26T19:18:27.672Z,102837.88
2023-02-26T19:20:55.165Z,102835.78
2023-02-26T19:23:22.964Z,102851.03
2023-02-26T19:25:52.069Z,102853.72
2023-02-26T19:28:19.464Z,102855.25
2023-02-26T19:30:46.948Z,102854.97
2023-02-26T19:33:16.177Z,102845.72
2023-02-26T19:35:43.965Z,102849.53
2023-02-26T19:38:11.520Z,102855.38
2023-02-26T19:40:39.213Z,102852.41
2023-02-26T19:43:06.601Z,102846.16
2023-02-26T19:45:34.046Z,102840.66
2023-02-26T19:48:01.490Z,102850.66
2023-02-26T19:50:28.898Z,102845.56
2023-02-26T19:52:58.298Z,102849.00
2023-02-26T19:55:25.717Z,102852.91
2023-02-26T19:57:53.229Z,102854.50
2023-02-26T20:00:20.874Z,102852.19
2023-02-26T20:02:48.331Z,102850.00
2023-02-26T20:05:18.160Z,102847.91
2023-02-26T20:07:46.308Z,102854.69
2023-02-26T20:10:15.605Z,102853.72
2023-02-26T20:12:43.862Z,102849.78
2023-02-26T20:15:11.568Z,102859.66
2023-02-26T20:17:39.387Z,102860.78
2023-02-26T20:20:07.528Z,102866.72
2023-02-26T20:22:34.897Z,102866.25
2023-02-26T20:25:02.348Z,102864.16
2023-02-26T20:27:29.791Z,102873.69
2023-02-26T20:29:57.174Z,102870.31
2023-02-26T20:32:25.392Z,102874.19
2023-02-26T20:34:52.879Z,102876.97
2023-02-26T20:37:20.349Z,102874.28
2023-02-26T20:39:47.824Z,102880.84
2023-02-26T20:42:16.960Z,102886.53
2023-02-26T20:44:44.621Z,102879.09
2023-02-26T20:47:12.003Z,102885.38
2023-02-26T20:49:39.653Z,102893.00
2023-02-26T20:52:07.127Z,102895.25
2023-02-26T20:54:34.617Z,102882.63
2023-02-26T20:57:02.109Z,102895.06
2023-02-26T20:59:29.891Z,102889.38
2023-02-26T21:01:57.901Z,102894.06
2023-02-26T21:04:25.616Z,102899.91
2023-02-26T21:06:53.109Z,102895.59
2023-02-26T21:09:20.531Z,102902.97
2023-02-26T21:11:48.547Z,102905.53
2023-02-26T21:14:16.371Z,102899.31
2023-02-26T21:16:44.019Z,102906.69
2023-02-26T21:19:11.658Z,102908.72
2023-02-26T21:21:39.101Z,102915.28
2023-02-26T21:24:06.777Z,102912.59
2023-02-26T21:26:35.285Z,102913.50
2023-02-26T21:29:02.793Z,102912.25
2023-02-26T21:31:30.505Z,102915.81
2023-02-26T21:33:58.591Z,102920.78
2023-02-26T21:36:26.994Z,102926.28
2023-02-26T21:38:54.410Z,102916.16
2023-02-26T21:41:22.145Z,102923.06
2023-02-26T21:43:49.719Z,102924.88
2023-02-26T21:46:17.332Z,102925.22
2023-02-26T21:48:46.188Z,102929.47
2023-02-26T21:51:15.477Z,102926.09
2023-02-26T21:53:43.133Z,102927.09
2023-02-26T21:56:10.577Z,102918.91
2023-02-26T21:58:38.053Z,102921.22
2023-02-26T22:01:05.688Z,102928.66
2023-02-26T22:03:33.126Z,102927.53
2023-02-26T22:06:04.916Z,102915.72
2023-02-26T22:08:32.848Z,102917.56
2023-02-26T22:11:00.279Z,102927.53
2023-02-26T22:13:28.081Z,102921.69
2023-02-26T22:15:55.519Z,102920.41
2023-02-26T22:18:22.976Z,102917.78
2023-02-26T22:20:50.511Z,102920.78
2023-02-26T22:23:17.909Z,102916.50
2023-02-26T22:25:45.935Z,102920.59
2023-02-26T22:28:13.530Z,102923.59
2023-02-26T22:30:41.059Z,102921.56
2023-02-26T22:33:08.714Z,102922.72
2023-02-26T22:35:36.155Z,102929.47
2023-02-26T22:38:03.949Z,102926.53
2023-02-26T22:40:31.345Z,102930.16
2023-02-26T22:42:58.952Z,102927.78
2023-02-26T22:45:26.440Z,102927.44
2023-02-26T22:47:53.882Z,102927.88
2023-02-26T22:50:21.415Z,102929.81
2023-02-26T22:52:49.327Z,102942.41
2023-02-26T22:55:17.009Z,102935.25
2023-02-26T22:57:44.611Z,102934.63
2023-02-26T23:00:15.061Z,102940.56
2023-02-26T23:02:43.308Z,102946.53
2023-02-26T23:05:10.751Z,102948.72
2023-02-26T23:07:38.882Z,102951.47
2023-02-26T23:10:07.289Z,102949.25
2023-02-26T23:12:34.839Z,102949.34
2023-02-26T23:15:03.220Z,102956.78
2023-02-26T23:17:30.763Z,102957.94
2023-02-26T23:19:58.304Z,102952.38
2023-02-26T23:22:26.021Z,102954.47
2023-02-26T23:24:53.587Z,102947.81
2023-02-26T23:27:21.078Z,102953.97
2023-02-26T23:29:48.600Z,102953.44
2023-02-26T23:32:16.268Z,102953.25
2023-02-26T23:34:43.778Z,102958.03
2023-02-26T23:37:11.225Z,102954.31
2023-02-26T23:39:38.657Z,102958.03
2023-02-26T23:42:06.144Z,102959.19
2023-02-26T23:44:33.717Z,102962.31
2023-02-26T23:47:01.110Z,102958.41
2023-02-26T23:49:28.635Z,102967.34
2023-02-26T23:51:56.571Z,102967.72
2023-02-26T23:54:23.982Z,102967.97
2023-02-26T23:56:51.471Z,102966.72
2023-02-26T23:59:18.996Z,102959.34
